Decoded Metar for YSWG (WAGGA WAGGA in AUSTRALIA) (IATA:WGA) | Meteo·Mobile Aviation Weather
aviador You're here:

YSWG Decoded Metar

WAGGA WAGGA in AUSTRALIA
Report Time2019-09-23 09:00:00
UTC Time2019-09-23 09:28:20
Flight Rules vfr VFR
Wind190° at 06 kt
W.Decomp.*RWY 23: 3.7 kt HW 4.7 kt LCW
RWY 12: 3.2 kt HW 5.1 kt RCW
Visibility9999 m
Phenomena:N/A
Clouds:N/A
Expected CloudBase > 2,800 ft AGL from Temp-Dew spread
CeilingNone
Temp09°C (ISA -5)
Dew Point02°C (62% RH)
AAT5.2°C
QNH1026 hPa
Density Alt-194 ft
Elevation699 ft
Report Wrong Elevation
Raw Report
YSWG 230900Z AUTO 19006KT 9999 // NCD 09/02 Q1026=

Extra information for YSWG:More info

Metar Taf Metar & Taf Last 4 Metars F.Rules Stats Wind Profile Meteogram Temp Stats Airport Information Weather charts Add Link Nearby VenuesMetar ALERT Operation Metar Decoded Social comments